Weather Data

Pearl Creek Farm: 8878 N Farm Road 75, Walnut Grove MO 65770

<== Previous Day (Monday 20 Jan 2020) | Next Day (Wednesday 22 Jan 2020) ==>

Summary Precipitation Data For Tuesday 21 January 2020

ElementValueUnits
Precipitation0"
Notes(none)
SourcePearl Creek Farm

Summary Temperature Data For Tuesday 21 January 2020

ElementValueUnits
High Temperature33 oF
Low Temperature15 oF
Average Temperature24 oF
High Humidity91 %
Low Humidity58 %
Average Humidity75 %
SourceSpringfield-Branson National Airport (SGF)

Detail Temperature Data For Tuesday 21 January 2020

Date / TimeTemp (F)RH (%)Dew Pt (F)Report Date / TimeSource
2020-01-21 00:52:00 18 81 13.0 2021-01-15 18:54:53.841352 Springfield-Branson National Airport (SGF)
2020-01-21 01:52:00 18 81 13.0 2021-01-15 18:54:53.841352 Springfield-Branson National Airport (SGF)
2020-01-21 02:52:00 16 84 12.0 2021-01-15 18:54:53.841352 Springfield-Branson National Airport (SGF)
2020-01-21 03:52:00 17 88 14.0 2021-01-15 18:54:53.841352 Springfield-Branson National Airport (SGF)
2020-01-21 04:52:00 17 88 14.0 2021-01-15 18:54:53.841352 Springfield-Branson National Airport (SGF)
2020-01-21 05:52:00 15 91 13.0 2021-01-15 18:54:53.841352 Springfield-Branson National Airport (SGF)
2020-01-21 06:52:00 16 88 13.0 2021-01-15 18:54:53.841352 Springfield-Branson National Airport (SGF)
2020-01-21 07:52:00 18 88 15.0 2021-01-15 18:54:53.841352 Springfield-Branson National Airport (SGF)
2020-01-21 08:52:00 18 88 15.0 2021-01-15 18:54:53.841352 Springfield-Branson National Airport (SGF)
2020-01-21 09:52:00 19 88 16.0 2021-01-15 18:54:53.841352 Springfield-Branson National Airport (SGF)
2020-01-21 10:52:00 21 85 17.0 2021-01-15 18:54:53.841352 Springfield-Branson National Airport (SGF)
2020-01-21 11:52:00 25 75 18.0 2021-01-15 18:54:53.841352 Springfield-Branson National Airport (SGF)
2020-01-21 12:52:00 28 66 18.0 2021-01-15 18:54:53.841352 Springfield-Branson National Airport (SGF)
2020-01-21 13:52:00 31 64 20.0 2021-01-15 18:54:53.841352 Springfield-Branson National Airport (SGF)
2020-01-21 14:52:00 33 58 20.0 2021-01-15 18:54:53.841352 Springfield-Branson National Airport (SGF)
2020-01-21 15:52:00 32 61 20.0 2021-01-15 18:54:53.841352 Springfield-Branson National Airport (SGF)
2020-01-21 16:52:00 31 61 19.0 2021-01-15 18:54:53.841352 Springfield-Branson National Airport (SGF)
2020-01-21 17:52:00 30 64 19.0 2021-01-15 18:54:53.841352 Springfield-Branson National Airport (SGF)
2020-01-21 18:52:00 29 66 19.0 2021-01-15 18:54:53.841352 Springfield-Branson National Airport (SGF)
2020-01-21 19:52:00 29 66 19.0 2021-01-15 18:54:53.841352 Springfield-Branson National Airport (SGF)
2020-01-21 20:52:00 29 66 19.0 2021-01-15 18:54:53.841352 Springfield-Branson National Airport (SGF)
2020-01-21 21:52:00 29 66 19.0 2021-01-15 18:54:53.841352 Springfield-Branson National Airport (SGF)
2020-01-21 22:52:00 28 69 19.0 2021-01-15 18:54:53.841352 Springfield-Branson National Airport (SGF)
2020-01-21 23:52:00 28 69 19.0 2021-01-15 18:54:53.841352 Springfield-Branson National Airport (SGF)

A total of 24 rows are displayed.